Tiempo atmosférico en la estación meteorológica de Pedraza de Alba, Salamanca (897 m.)



Fecha
DESCASC
Temp. máxima en grados centígrados (hora)
DESCASC
Temp. mínima en grados centígrados (hora)
DESCASC
Temp. media en grados centígrados
DESCASC
Racha de viento máxima en m/sg (hora)
DESCASC
Velocidad máxima media en intervalos de 10 minutos(hora)
DESCASC
Precipitaciones diarias en mm
DESCASC
Precipitaciones de 00:00 a 06:00 en mm
DESCASC
Precipitaciones de 06:00 a 12:00 en mm
DESCASC
Precipitaciones de 12:00 a 18:00 en mm
DESCASC
Precipitaciones de 18:00 a 24:00 en mm
DESCASC
15-11-2018 17.2 (14:10) 3.7 (07:50) 10.5 7.78 (17:20) 3.89 (10:50) 0.2 0 0.2 0 0
14-11-2018 13.4 (16:30) 1.2 (07:50) 7.3 4.44 (22:30) 1.94 (22:40) 0.6 0.2 0 0 0.4
13-11-2018 12.8 (15:50) 7.1 (23:59) 10 6.11 (14:10) 3.89 (14:10) 0.2 0.2 0 0 0
12-11-2018 9.7 (13:30) 7 (00:00) 8.3 6.11 (15:50) 3.61 (15:30) 4.4 0.6 2 0.8 1
11-11-2018 16.8 (14:10) 6.9 (00:00) 11.8 13.61 (12:50) 7.5 (03:40) 9.6 0.2 3.6 0 5.8
10-11-2018 13.8 (12:50) 9.8 (00:00) 11.8 18.33 (12:50) 9.44 (13:30) 0.4 0 0 0.2 0.2
09-11-2018 9.8 (15:00) 3.4 (00:00) 6.6 13.06 (21:30) 6.67 (22:00) 0 0 0 0 0
08-11-2018 12.5 (13:50) 3.4 (00:00) 8 12.5 (17:40) 6.11 (17:40) 7 0 0 3.6 3.4
07-11-2018 10.9 (16:20) 2.9 (00:00) 6.9 13.33 (00:40) 7.5 (01:20) 4.2 0 4.2 0 0
06-11-2018 9.5 (23:50) 4.5 (00:00) 7 15 (16:00) 7.78 (16:20) 0.2 0 0.2 0 0
05-11-2018 8.3 (00:30) 4.5 (00:00) 6.4 11.67 (15:50) 6.39 (15:50) 11.8 10 0.2 1.4 0.2
04-11-2018 14.7 (13:10) -0.3 (00:00) 7.2 11.39 (18:50) 7.22 (18:50) 3.2 0 0 0 3.2
03-11-2018 15.1 (15:40) 1.3 (00:00) 8.2 5.56 (12:20) 3.33 (12:30) 0 0 0 0 0
02-11-2018 16.9 (16:40) 6.7 (00:00) 11.8 8.61 (03:30) 5 (03:20) 0 0 0 0 0
01-11-2018 11.8 (14:50) 0.8 (00:00) 6.3 6.39 (14:20) 3.06 (14:30) 0 0 0 0 0
31-10-2018 8.1 (16:40) 3.1 (00:00) 5.6 6.67 (03:20) 3.06 (03:50) 0.8 0.6 0.2 0 0
30-10-2018 9.7 (11:20) 4 (00:00) 6.8 9.44 (01:30) 4.72 (01:30) 5.4 2.2 0.6 2.6 0
29-10-2018 8.8 (14:50) -2.6 (-00:0) 3.1 9.17 (15:00) 5 (15:00) 0 0 0 0 0
28-10-2018 6.7 (16:40) -2.4 (-00:0) 2.1 8.06 (00:50) 5 (00:50) 0 0 0 0 0
27-10-2018 11.4 (01:50) 2.7 (00:00) 7 11.11 (20:10) 5.56 (10:40) 3 0 1 0.8 1.2
26-10-2018 16.3 (13:00) 8.5 (00:00) 12.4 6.67 (18:00) 3.61 (17:10) 0.4 0 0 0 0.4
25-10-2018 21.8 (16:10) 2.5 (00:00) 12.1 3.61 (16:10) 1.67 (16:20) 0 0 0 0 0
24-10-2018 20.6 (16:40) 2.8 (00:00) 11.7 3.06 (13:40) 1.39 (13:40) 0 0 0 0 0
23-10-2018 20 (17:30) 1.9 (00:00) 10.9 4.44 (18:30) 2.78 (18:40) 0 0 0 0 0
22-10-2018 18.9 (17:40) 7.5 (00:00) 13.2 6.67 (14:20) 3.61 (15:30) 0 0 0 0 0
21-10-2018 20.5 (15:20) 13.7 (00:00) 17.1 8.89 (13:00) 5 (01:00) 0.4 0.2 0.2 0 0
20-10-2018 19.9 (15:40) 10.9 (00:00) 15.4 9.72 (12:40) 5.28 (12:30) 0.8 0.4 0 0 0.4
19-10-2018 14.2 (16:40) 11.7 (00:00) 12.9 8.61 (18:00) 4.44 (14:50) 5.8 0.2 0.6 4.6 0.4
18-10-2018 18.7 (17:50) 10.3 (00:00) 14.5 12.5 (18:10) 6.94 (18:10) 0.4 0 0.2 0 0.2

Gráficas

Temp. máximas Temp. mínimas Temp. medias Precipitaciones Rachas de viento máximas Velocidades máximas media en intervalos de 10 minutos

Datos horarios

Fecha y hora oficial Temperatura (ºC) Velocidad del viento (km/h) Dirección del viento Racha (km/h) Dirección de racha Precipitación (mm) Presión (hPa) Tendencia (hPa) Humedad (%)
2018-11-16 23:00:00 10 6 Sudeste 15 Sudeste 0 -- -- 80
2018-11-16 22:00:00 6.8 0 Calma 5 Sudeste 0 -- -- 96
2018-11-16 21:00:00 7.2 2 Sudoeste 4 Sudoeste 0 -- -- 96
2018-11-16 20:00:00 7.7 0 Calma 8 Sur 0 -- -- 91
2018-11-16 19:00:00 8.6 3 Sur 5 Sur 0 -- -- 90
2018-11-16 18:00:00 11.4 0 Calma 5 Sudoeste 0 -- -- 82
2018-11-16 17:00:00 13.2 3 Sudoeste 5 Noroeste 0 -- -- 75
2018-11-16 16:00:00 13.8 0 Calma 4 Sudoeste 0 -- -- 72
2018-11-16 15:00:00 13.3 2 Oeste 8 Oeste 0 -- -- 73
2018-11-16 14:00:00 13.1 2 Sudoeste 10 Oeste 0 -- -- 74
2018-11-16 13:00:00 12.5 6 Oeste 10 Oeste 0 -- -- 82
2018-11-16 12:00:00 12.8 3 Oeste 8 Sur 0 -- -- 81
2018-11-16 11:00:00 12.8 0 Calma 10 Este 0 -- -- 80
2018-11-16 10:00:00 10.5 2 Nordeste 9 Este 0 -- -- 88
2018-11-16 09:00:00 8.1 4 Sur 13 Este 0 -- -- 96
2018-11-16 08:00:00 5.9 0 Calma 6 Este 0 -- -- 94
2018-11-16 07:00:00 5.8 3 Sur 7 Sudeste 0 -- -- 94
2018-11-16 06:00:00 7.7 2 Norte 8 Norte 0 -- -- 90
2018-11-16 05:00:00 8.7 2 Norte 8 Norte 0 -- -- 86
2018-11-16 04:00:00 9.1 4 Noroeste 12 Este 0 -- -- 86
2018-11-16 03:00:00 10.3 8 Sudeste 14 Este 0 -- -- 84
2018-11-16 02:00:00 10.7 3 Este 6 Sur 0 -- -- 84
2018-11-16 01:00:00 11.2 0 Calma 12 Este 0 -- -- 83
2018-11-16 00:00:00 11.4 4 Sudoeste 10 Sur 0 -- -- 80
2018-11-15 23:00:00 10.9 2 Nordeste 12 Sudeste 0 -- -- 82
2018-11-15 22:00:00 11.2 5 Sudeste 13 Sudeste 0 -- -- 79
2018-11-15 21:00:00 10.3 3 Sur 11 Sudeste 0 -- -- 81
2018-11-15 20:00:00 11 6 Este 15 Sudeste 0 -- -- 79
2018-11-15 19:00:00 12.3 9 Este 27 Este 0 -- -- 73
2018-11-15 18:00:00 13.6 9 Este 28 Este 0 -- -- 69
2018-11-15 17:00:00 15.8 10 Este 24 Sudeste 0 -- -- 57
2018-11-15 16:00:00 16.9 12 Este 23 Este 0 -- -- 53
2018-11-15 15:00:00 17.2 10 Este 22 Sudeste 0 -- -- 51
2018-11-15 14:00:00 17.1 9 Este 21 Sudeste 0 -- -- 55
2018-11-15 13:00:00 15.9 10 Este 18 Nordeste 0 -- -- 62
2018-11-15 12:00:00 14.6 9 Este 22 Este 0 -- -- 70
2018-11-15 11:00:00 13.2 11 Este 24 Sudeste 0 -- -- 80
2018-11-15 10:00:00 9 0 Calma 5 Norte 0 -- -- 99
2018-11-15 09:00:00 6.4 3 Sur 8 Este 0.2 -- -- 100
2018-11-15 08:00:00 4.2 2 Sur 5 Sur 0 -- -- 100
2018-11-15 07:00:00 4.6 0 Calma 5 Sur 0 -- -- 98
2018-11-15 06:00:00 4.8 2 Sur 7 Sudeste 0 -- -- 98
2018-11-15 05:00:00 5.6 0 Calma 8 Sudeste 0 -- -- 98
2018-11-15 04:00:00 6.9 2 Sudoeste 7 Sur 0 -- -- 97
2018-11-15 03:00:00 8.3 0 Calma 6 Sudeste 0 -- -- 94
2018-11-15 02:00:00 9.2 2 Sudoeste 6 Este 0 -- -- 96
2018-11-15 01:00:00 10.3 0 Calma 3 Noroeste 0 -- -- 95
2018-11-15 00:00:00 11 0 Calma 14 Sudeste 0.4 -- -- 93
2018-11-14 23:00:00 11 0 Calma 16 Sudeste 0 -- -- 91
2018-11-14 22:00:00 9.6 2 Sudeste 7 Sur 0 -- -- 96
2018-11-14 21:00:00 9.1 0 Calma 5 Oeste 0 -- -- 97
2018-11-14 20:00:00 9.4 2 Sudoeste 5 Oeste 0 -- -- 97
2018-11-14 19:00:00 10.1 2 Sur 5 Sudeste 0 -- -- 95
2018-11-14 18:00:00 11.1 2 Sudeste 6 Oeste 0 -- -- 92
2018-11-14 17:00:00 13 4 Oeste 8 Oeste 0 -- -- 87
2018-11-14 16:00:00 13 5 Sudoeste 10 Sudoeste 0 -- -- 88
2018-11-14 15:00:00 12.9 5 Sudoeste 10 Oeste 0 -- -- 89
2018-11-14 14:00:00 12.3 3 Norte 10 Norte 0 -- -- 94
2018-11-14 13:00:00 9.6 6 Norte 10 Norte 0 -- -- 96
2018-11-14 12:00:00 7.6 0 Calma 7 Sudoeste 0 -- -- 100
2018-11-14 11:00:00 5.2 3 Noroeste 6 Oeste 0 -- -- 100
2018-11-14 10:00:00 4.4 2 Noroeste 5 Noroeste 0 -- -- 100
2018-11-14 09:00:00 1.8 0 Calma 5 Sudoeste 0 -- -- 100
2018-11-14 08:00:00 1.4 0 Calma 4 Sur 0 -- -- 100
2018-11-14 07:00:00 1.9 0 Calma 5 Sudoeste 0 -- -- 100
2018-11-14 06:00:00 2.1 2 Sudoeste 5 Sudoeste 0 -- -- 100
2018-11-14 05:00:00 2.3 0 Calma 4 Sudoeste 0 -- -- 100
2018-11-14 04:00:00 3 0 Calma 3 Noroeste 0 -- -- 99
2018-11-14 03:00:00 3.9 0 Calma 5 Norte 0 -- -- 100
2018-11-14 02:00:00 4.9 2 Noroeste 6 Norte 0 -- -- 100
2018-11-14 01:00:00 6.2 3 Sur 5 Sur 0.2 -- -- 100
2018-11-14 00:00:00 7.1 0 Calma 4 Nordeste 0 -- -- 100
2018-11-13 23:00:00 7.7 0 Calma 9 Sudeste 0 -- -- 100
2018-11-13 22:00:00 8.1 4 Nordeste 10 Nordeste 0 -- -- 100
2018-11-13 21:00:00 8.2 6 Nordeste 13 Norte 0 -- -- 100
2018-11-13 20:00:00 8.7 8 Nordeste 13 Nordeste 0 -- -- 99
2018-11-13 19:00:00 8.9 7 Nordeste 13 Nordeste 0 -- -- 97
2018-11-13 18:00:00 9.1 7 Nordeste 19 Nordeste 0 -- -- 96
2018-11-13 17:00:00 10 10 Norte 21 Norte 0 -- -- 94
2018-11-13 16:00:00 12.2 11 Nordeste 19 Nordeste 0 -- -- 87
2018-11-13 15:00:00 12.5 10 Norte 22 Nordeste 0 -- -- 86
2018-11-13 14:00:00 12.1 12 Nordeste 21 Nordeste 0 -- -- 86
2018-11-13 13:00:00 11.1 13 Nordeste 20 Nordeste 0 -- -- 90
2018-11-13 12:00:00 11.1 9 Nordeste 18 Nordeste 0 -- -- 90
2018-11-13 11:00:00 9.5 7 Este 16 Este 0 -- -- 97
2018-11-13 10:00:00 8.7 8 Nordeste 14 Nordeste 0 -- -- 99
2018-11-13 09:00:00 8.1 5 Nordeste 10 Nordeste 0 -- -- 100
2018-11-13 08:00:00 7.8 6 Nordeste 16 Nordeste 0 -- -- 100
2018-11-13 07:00:00 7.6 8 Nordeste 13 Nordeste 0 -- -- 100
2018-11-13 06:00:00 7.4 6 Nordeste 13 Nordeste 0 -- -- 100
2018-11-13 05:00:00 7.3 6 Nordeste 16 Norte 0.2 -- -- 100
2018-11-13 04:00:00 7.4 8 Norte 16 Norte 0 -- -- 100
2018-11-13 03:00:00 7.7 8 Nordeste 17 Nordeste 0 -- -- 100
2018-11-13 02:00:00 7.8 7 Nordeste 17 Norte 0 -- -- 100
2018-11-13 01:00:00 7.7 7 Norte 13 Norte 0 -- -- 100
2018-11-13 00:00:00 7.4 3 Nordeste 6 Norte 0 -- -- 99
2018-11-12 23:00:00 8.1 0 Calma 5 Sudeste 0 -- -- 98
2018-11-12 22:00:00 8.2 4 Este 10 Este 0 -- -- 98
2018-11-12 21:00:00 8.1 4 Nordeste 10 Este 0.6 -- -- 99
2018-11-12 20:00:00 8.1 4 Nordeste 8 Nordeste 0.2 -- -- 98
2018-11-12 19:00:00 8.3 4 Norte 8 Norte 0.2 -- -- 98
2018-11-12 18:00:00 8.5 4 Nordeste 12 Norte 0.2 -- -- 97
2018-11-12 17:00:00 8.8 7 Norte 17 Norte 0 -- -- 97
2018-11-12 16:00:00 8.9 10 Norte 22 Norte 0.2 -- -- 97
2018-11-12 15:00:00 9.2 12 Norte 18 Norte 0.4 -- -- 97
2018-11-12 14:00:00 9.7 8 Norte 12 Norte 0 -- -- 94
2018-11-12 13:00:00 9.5 7 Norte 12 Norte 0 -- -- 95
2018-11-12 12:00:00 8.8 6 Norte 14 Nordeste 0 -- -- 96
2018-11-12 11:00:00 8.1 4 Nordeste 11 Nordeste 0 -- -- 96
2018-11-12 10:00:00 7.6 3 Nordeste 8 Nordeste 0 -- -- 97
2018-11-12 09:00:00 7.5 3 Nordeste 5 Nordeste 0 -- -- 98
2018-11-12 08:00:00 7.1 2 Nordeste 5 Este 1.2 -- -- 99
2018-11-12 07:00:00 7.2 0 Calma 10 Norte 0.8 -- -- 98
2018-11-12 06:00:00 7.4 9 Norte 12 Norte 0 -- -- 97
2018-11-12 05:00:00 8.6 4 Oeste 16 Oeste 0 -- -- 95
2018-11-12 04:00:00 8.6 8 Sudoeste 16 Sur 0.2 -- -- 95
2018-11-12 03:00:00 8.4 5 Sudoeste 14 Sudoeste 0 -- -- 92
2018-11-12 02:00:00 8.5 6 Sudoeste 15 Sur 0 -- -- 91
2018-11-12 01:00:00 8.3 10 Sur 18 Sur 0.4 -- -- 91
2018-11-12 00:00:00 7 3 Sudeste 9 Sudeste 0.4 -- -- 96
2018-11-11 23:00:00 6.9 5 Sudeste 10 Este 1.2 -- -- 96
2018-11-11 22:00:00 7.3 6 Oeste 19 Noroeste 2 -- -- 95
2018-11-11 21:00:00 7.5 13 Noroeste 42 Noroeste 2.2 -- -- 94
2018-11-11 20:00:00 12.9 9 Sudoeste 22 Sur 0 -- -- 72
2018-11-11 19:00:00 12.8 10 Sur 33 Sudoeste 0 -- -- 78
2018-11-11 18:00:00 13.7 16 Sur 34 Sur 0 -- -- 71
2018-11-11 17:00:00 14.4 17 Sur 38 Sur 0 -- -- 66
2018-11-11 16:00:00 14.7 19 Sur 43 Sudoeste 0 -- -- 62
2018-11-11 15:00:00 15.1 18 Sur 42 Sur 0 -- -- 64
2018-11-11 14:00:00 16.7 20 Sur 45 Sur 0 -- -- 59
2018-11-11 13:00:00 14.5 21 Sur 49 Sur 0 -- -- 68
2018-11-11 12:00:00 12.9 13 Sur 37 Sudoeste 0 -- -- 75
2018-11-11 11:00:00 11.9 17 Sur 36 Sudoeste 0 -- -- 79
2018-11-11 10:00:00 10.4 13 Sudoeste 40 Sudoeste 0 -- -- 89
2018-11-11 09:00:00 10.1 21 Sur 46 Sur 2 -- -- 90
2018-11-11 08:00:00 10.4 17 Sudoeste 39 Sur 1.6 -- -- 88
2018-11-11 07:00:00 10.3 12 Sudoeste 26 Sudoeste 0 -- -- 88
2018-11-11 06:00:00 11 9 Sudoeste 31 Sudoeste 0 -- -- 82
2018-11-11 05:00:00 11 17 Sudoeste 34 Sur 0 -- -- 80
2018-11-11 04:00:00 10.6 19 Sudoeste 47 Sudoeste 0 -- -- 87
2018-11-11 03:00:00 10.2 22 Sudoeste 41 Sur 0 -- -- 92
2018-11-11 02:00:00 11.3 21 Sudoeste 35 Sudoeste 0.2 -- -- 95
2018-11-11 01:00:00 11.2 17 Sudoeste 32 Sudoeste 0 -- -- 94
2018-11-11 00:00:00 10.8 12 Sudoeste 24 Sudoeste 0.2 -- -- 94
2018-11-10 23:00:00 10.9 12 Sudoeste 26 Sudoeste 0 -- -- 94
2018-11-10 22:00:00 11.2 14 Sudoeste 31 Sudoeste 0 -- -- 90
2018-11-10 21:00:00 11.3 16 Sudoeste 32 Sudoeste 0 -- -- 89
2018-11-10 20:00:00 11.3 14 Sudoeste 29 Sur 0 -- -- 89
2018-11-10 19:00:00 11.7 9 Sudoeste 24 Sudoeste 0 -- -- 93
2018-11-10 18:00:00 11.9 15 Sudoeste 36 Sudoeste 0 -- -- 92
2018-11-10 17:00:00 12.3 19 Sudoeste 45 Sudoeste 0 -- -- 91
2018-11-10 16:00:00 12.4 22 Sudoeste 41 Oeste 0.2 -- -- 91
2018-11-10 15:00:00 12.9 24 Sudoeste 48 Sudoeste 0 -- -- 90
2018-11-10 14:00:00 12.7 24 Sudoeste 58 Sudoeste 0 -- -- 91
2018-11-10 13:00:00 13.5 33 Sudoeste 66 Sudoeste 0 -- -- 80
2018-11-10 12:00:00 13.2 28 Sudoeste 56 Sudoeste 0 -- -- 80
2018-11-10 11:00:00 12.9 31 Sudoeste 57 Sudoeste 0 -- -- 80
2018-11-10 10:00:00 12.5 26 Sudoeste 62 Sudoeste 0 -- -- 79
2018-11-10 09:00:00 11.9 30 Sudoeste 59 Sudoeste 0 -- -- 81
2018-11-10 08:00:00 12 28 Sudoeste 54 Sudoeste 0 -- -- 79
2018-11-10 07:00:00 11.7 26 Sudoeste 50 Sudoeste 0 -- -- 79
2018-11-10 06:00:00 11.2 27 Sudoeste 53 Oeste 0 -- -- 81
2018-11-10 05:00:00 10.9 24 Sudoeste 49 Sudoeste 0 -- -- 83
2018-11-10 04:00:00 10.5 25 Sudoeste 52 Sudoeste 0 -- -- 85
2018-11-10 03:00:00 10.5 23 Sudoeste 53 Sudoeste 0 -- -- 85
2018-11-10 02:00:00 10.3 20 Sudoeste 48 Sudoeste 0 -- -- 83
2018-11-10 01:00:00 10.1 19 Sudoeste 42 Sudoeste 0 -- -- 83
2018-11-10 00:00:00 9.8 17 Sudoeste 39 Sudoeste 0 -- -- 83
2018-11-09 23:00:00 9.2 22 Sudoeste 37 Sudoeste 0 -- -- 86
2018-11-09 22:00:00 9 24 Sudoeste 47 Sudoeste 0 -- -- 87
2018-11-09 21:00:00 8.6 20 Sudoeste 38 Sudoeste 0 -- -- 89
2018-11-09 20:00:00 8.3 21 Sudoeste 44 Sudoeste 0 -- -- 89
2018-11-09 19:00:00 8.1 19 Sudoeste 39 Sur 0 -- -- 87
2018-11-09 18:00:00 7.8 17 Sudoeste 40 Sudoeste 0 -- -- 85
2018-11-09 17:00:00 8 19 Sudoeste 39 Sudoeste 0 -- -- 77
2018-11-09 16:00:00 8.9 17 Sudoeste 34 Sudoeste 0 -- -- 71
2018-11-09 15:00:00 9.8 16 Sudoeste 33 Sudoeste 0 -- -- 68
2018-11-09 14:00:00 9 13 Sudoeste 28 Sudoeste 0 -- -- 67
2018-11-09 13:00:00 9.1 16 Sudoeste 26 Sudoeste 0 -- -- 65
2018-11-09 12:00:00 7.4 12 Sudoeste 28 Sudoeste 0 -- -- 76
2018-11-09 11:00:00 6.5 10 Sudoeste 21 Sudoeste 0 -- -- 79
2018-11-09 10:00:00 5.8 12 Sudoeste 19 Sudoeste 0 -- -- 83
2018-11-09 09:00:00 4.3 9 Sudoeste 17 Sudoeste 0 -- -- 92
2018-11-09 08:00:00 3.6 10 Sudoeste 17 Sudoeste 0 -- -- 94
2018-11-09 07:00:00 3.8 5 Sudoeste 13 Sudoeste 0 -- -- 92
2018-11-09 06:00:00 4.4 5 Sudoeste 17 Sudoeste 0 -- -- 91
2018-11-09 05:00:00 4.9 10 Sudoeste 22 Sudoeste 0 -- -- 91
2018-11-09 04:00:00 5.1 7 Oeste 27 Sudoeste 0 -- -- 89
2018-11-09 03:00:00 4.9 12 Sudoeste 25 Sudoeste 0 -- -- 90
2018-11-09 02:00:00 4.7 11 Sudoeste 21 Oeste 0 -- -- 91
2018-11-09 01:00:00 4.6 10 Sudoeste 22 Sudoeste 0 -- -- 91
2018-11-09 00:00:00 4.5 12 Sudoeste 24 Sudoeste 0 -- -- 90
2018-11-08 23:00:00 4.7 9 Sudoeste 22 Sudoeste 0 -- -- 90
2018-11-08 22:00:00 5.1 12 Sudoeste 24 Sudoeste 0 -- -- 89
2018-11-08 21:00:00 5.7 10 Oeste 21 Sudoeste 0 -- -- 89
2018-11-08 20:00:00 5.4 6 Sudoeste 29 Oeste 2.8 -- -- 94
2018-11-08 19:00:00 6.4 13 Oeste 37 Oeste 0.6 -- -- 88
2018-11-08 18:00:00 6.9 16 Sur 45 Sudoeste 3.6 -- -- 89
2018-11-08 17:00:00 9.8 12 Sudoeste 28 Sudoeste 0 -- -- 76
2018-11-08 16:00:00 11.3 15 Sudoeste 35 Sudoeste 0 -- -- 76
2018-11-08 15:00:00 10.9 16 Sudoeste 34 Sudoeste 0 -- -- 72
2018-11-08 14:00:00 12.1 15 Sudoeste 33 Sur 0 -- -- 64
2018-11-08 13:00:00 11.8 8 Sudoeste 30 Sudoeste 0 -- -- 62
2018-11-08 12:00:00 9.9 11 Sur 21 Sudoeste 0 -- -- 69
2018-11-08 11:00:00 9.2 11 Sudoeste 30 Sudoeste 0 -- -- 81
2018-11-08 10:00:00 8.2 15 Sudoeste 25 Sudoeste 0 -- -- 87
2018-11-08 09:00:00 6.3 5 Sudoeste 18 Oeste 0 -- -- 86
2018-11-08 08:00:00 4.6 0 Calma 6 Sudeste 0 -- -- 92
2018-11-08 07:00:00 4.1 2 Sur 5 Sudeste 0 -- -- 93
2018-11-08 06:00:00 3.9 2 Sur 7 Sudeste 0 -- -- 89
2018-11-08 05:00:00 4.4 2 Sudoeste 9 Sur 0 -- -- 87
2018-11-08 04:00:00 4.9 2 Sudeste 11 Sur 0 -- -- 88
2018-11-08 03:00:00 4.9 4 Sur 9 Sur 0 -- -- 90
2018-11-08 02:00:00 4.5 3 Sur 6 Sudeste 0 -- -- 93
2018-11-08 01:00:00 3.9 0 Calma 6 Sudoeste 0 -- -- 93
2018-11-08 00:00:00 3.4 2 Sur 5 Sur 0 -- -- 94
2018-11-07 23:00:00 3.2 3 Sur 5 Sudeste 0 -- -- 95
2018-11-07 22:00:00 3.7 3 Sur 6 Sur 0 -- -- 90
2018-11-07 21:00:00 3.9 0 Calma 8 Sudeste 0 -- -- 92
2018-11-07 20:00:00 4.7 4 Sudeste 7 Sudeste 0 -- -- 87
2018-11-07 19:00:00 6.1 0 Calma 4 Sur 0 -- -- 81
2018-11-07 18:00:00 9.1 2 Oeste 21 Noroeste 0 -- -- 70
2018-11-07 17:00:00 10.1 10 Noroeste 24 Oeste 0 -- -- 72
2018-11-07 16:00:00 10.8 13 Oeste 26 Oeste 0 -- -- 54
2018-11-07 15:00:00 9.5 10 Noroeste 26 Noroeste 0 -- -- 77
2018-11-07 14:00:00 10.2 15 Oeste 31 Noroeste 0 -- -- 76
2018-11-07 13:00:00 9.7 13 Oeste 37 Oeste 0 -- -- 73
2018-11-07 12:00:00 9.4 13 Oeste 27 Oeste 0 -- -- 81
2018-11-07 11:00:00 8 10 Sudoeste 27 Oeste 0.6 -- -- 92
2018-11-07 10:00:00 7.3 15 Oeste 33 Oeste 0.8 -- -- 89
2018-11-07 09:00:00 7.5 6 Sudoeste 24 Sudoeste 0 -- -- 93
2018-11-07 08:00:00 7.6 11 Sudoeste 37 Sudoeste 1.2 -- -- 92
2018-11-07 07:00:00 8.5 5 Oeste 24 Sudoeste 1.6 -- -- 95
2018-11-07 06:00:00 9.4 13 Sudoeste 35 Sudoeste 0 -- -- 85
2018-11-07 05:00:00 9.8 18 Sudoeste 41 Sudoeste 0 -- -- 78
2018-11-07 04:00:00 9.8 14 Sudoeste 36 Sur 0 -- -- 74
2018-11-07 03:00:00 10.1 18 Sur 48 Sudoeste 0 -- -- 72
2018-11-07 02:00:00 10.1 25 Sur 47 Sudoeste 0 -- -- 72
2018-11-07 01:00:00 9.6 23 Sudoeste 48 Sur 0 -- -- 75
2018-11-07 00:00:00 9.5 18 Sur 43 Sur 0 -- -- 75
2018-11-06 23:00:00 9.3 22 Sudoeste 39 Sur 0 -- -- 76
2018-11-06 22:00:00 8.9 10 Sudoeste 34 Sudoeste 0 -- -- 80
2018-11-06 21:00:00 8.6 20 Sudoeste 36 Sudoeste 0 -- -- 81
2018-11-06 20:00:00 8.4 12 Sudoeste 24 Sudoeste 0 -- -- 82
2018-11-06 19:00:00 8.3 9 Sudoeste 41 Sudoeste 0 -- -- 83
2018-11-06 18:00:00 8.5 12 Sudoeste 30 Sudoeste 0 -- -- 83
2018-11-06 17:00:00 8.2 14 Sudoeste 48 Sudoeste 0 -- -- 85
2018-11-06 16:00:00 8.3 26 Sudoeste 54 Sudoeste 0 -- -- 84
2018-11-06 15:00:00 7.8 22 Sudoeste 43 Sudoeste 0 -- -- 83
2018-11-06 14:00:00 7.8 24 Sudoeste 45 Sudoeste 0 -- -- 83
2018-11-06 13:00:00 8.4 19 Sudoeste 42 Sudoeste 0 -- -- 80
2018-11-06 12:00:00 7.6 18 Sudoeste 32 Sudoeste 0 -- -- 77
2018-11-06 11:00:00 7.1 17 Sudoeste 31 Sudoeste 0.2 -- -- 78
2018-11-06 10:00:00 6.2 12 Sudoeste 26 Sudoeste 0 -- -- 86
2018-11-06 09:00:00 5.1 13 Sudoeste 23 Sudoeste 0 -- -- 92
2018-11-06 08:00:00 4.5 10 Sudoeste 24 Sudoeste 0 -- -- 94
2018-11-06 07:00:00 4.8 9 Sudoeste 23 Sudoeste 0 -- -- 93
2018-11-06 06:00:00 4.8 11 Sudoeste 26 Sudoeste 0 -- -- 92
2018-11-06 05:00:00 4.6 11 Sudoeste 28 Sudoeste 0 -- -- 91
2018-11-06 04:00:00 4.9 8 Sudoeste 29 Sudoeste 0 -- -- 85
2018-11-06 03:00:00 4.7 10 Sudoeste 21 Sudoeste 0 -- -- 87
2018-11-06 02:00:00 5 11 Sudoeste 27 Oeste 0 -- -- 88
2018-11-06 01:00:00 5.4 14 Sudoeste 26 Oeste 0 -- -- 88
2018-11-06 00:00:00 5.5 11 Oeste 28 Sudoeste 0 -- -- 90
2018-11-05 23:00:00 5.6 15 Sudoeste 30 Sudoeste 0 -- -- 89
2018-11-05 22:00:00 5.6 13 Sudoeste 26 Sudoeste 0 -- -- 91
2018-11-05 21:00:00 5.8 11 Sudoeste 26 Oeste 0 -- -- 92
2018-11-05 20:00:00 5.9 12 Sudoeste 22 Sudoeste 0 -- -- 92
2018-11-05 19:00:00 5.6 10 Sudoeste 22 Oeste 0.2 -- -- 92
2018-11-05 18:00:00 5.3 13 Oeste 37 Oeste 0.2 -- -- 91
2018-11-05 17:00:00 4.6 17 Oeste 38 Oeste 0.2 -- -- 89
2018-11-05 16:00:00 5.1 19 Oeste 42 Oeste 0 -- -- 86
2018-11-05 15:00:00 6.1 14 Oeste 33 Oeste 0.2 -- -- 93
2018-11-05 14:00:00 5.8 15 Sudoeste 38 Sudoeste 0.4 -- -- 90
2018-11-05 13:00:00 6.4 20 Sudoeste 39 Sudoeste 0.4 -- -- 85
2018-11-05 12:00:00 7.1 21 Sudoeste 36 Sudoeste 0 -- -- 82
2018-11-05 11:00:00 7.1 16 Sudoeste 31 Sudoeste 0 -- -- 86
2018-11-05 10:00:00 5.7 10 Sudoeste 24 Sudoeste 0 -- -- 94
2018-11-05 09:00:00 5.1 4 Sudoeste 17 Sudoeste 0 -- -- 97
2018-11-05 08:00:00 4.7 4 Sudoeste 14 Oeste 0 -- -- 95
2018-11-05 07:00:00 4.8 8 Sudoeste 14 Sudoeste 0.2 -- -- 97
2018-11-05 06:00:00 5.3 3 Sudoeste 5 Sur 1 -- -- 97
2018-11-05 05:00:00 5.3 3 Sudeste 6 Sur 2 -- -- 96
2018-11-05 04:00:00 5.7 5 Sudoeste 27 Oeste 3 -- -- 94
2018-11-05 03:00:00 7.3 9 Sudoeste 25 Sur 2.2 -- -- 92
2018-11-05 02:00:00 7.4 13 Sur 27 Sur 1.4 -- -- 90
2018-11-05 01:00:00 8 11 Sudoeste 23 Sur 0.4 -- -- 89
2018-11-05 00:00:00 8.1 16 Sur 29 Sur 0 -- -- 84
2018-11-04 23:00:00 7.4 7 Sur 19 Sur 0 -- -- 91
2018-11-04 22:00:00 6.9 10 Sudoeste 23 Oeste 1 -- -- 95
2018-11-04 21:00:00 7.2 14 Sudoeste 22 Sudoeste 1.6 -- -- 91
2018-11-04 20:00:00 7 5 Sudoeste 28 Sudoeste 0.6 -- -- 92
2018-11-04 19:00:00 7.6 21 Sudoeste 41 Sudoeste 0 -- -- 87
2018-11-04 18:00:00 8.3 12 Sudoeste 31 Sudoeste 0 -- -- 87
2018-11-04 17:00:00 9.4 10 Sudoeste 35 Sudoeste 0 -- -- 83
2018-11-04 16:00:00 10.1 23 Sudoeste 38 Sudoeste 0 -- -- 81
2018-11-04 15:00:00 11.1 19 Sudoeste 30 Oeste 0 -- -- 77
2018-11-04 14:00:00 13 22 Sudoeste 35 Sudoeste 0 -- -- 67
2018-11-04 13:00:00 14.6 11 Sudoeste 24 Sudoeste 0 -- -- 57
2018-11-04 12:00:00 13.6 15 Sudoeste 31 Sudoeste 0 -- -- 64
2018-11-04 11:00:00 13.5 11 Sudoeste 22 Sudoeste 0 -- -- 52
2018-11-04 10:00:00 10.4 5 Oeste 9 Sudoeste 0 -- -- 64
2018-11-04 09:00:00 2.9 0 Calma 5 Sur 0 -- -- 84
2018-11-04 08:00:00 -0.1 0 Calma 4 Sudoeste 0 -- -- 87
2018-11-04 07:00:00 0.4 3 Sur 4 Sudoeste 0 -- -- 84
2018-11-04 06:00:00 0.8 2 Sur 6 Sur 0 -- -- 80
2018-11-04 05:00:00 -0.3 0 Calma 4 Sur 0 -- -- 85
2018-11-04 04:00:00 -0.2 0 Calma 4 Sur 0 -- -- 86
2018-11-04 03:00:00 0.5 0 Calma 4 Sur 0 -- -- 83
2018-11-04 02:00:00 1.5 0 Calma 4 Sudeste 0 -- -- 82
2018-11-04 01:00:00 2.1 4 Sur 8 Sur 0 -- -- 76
2018-11-04 00:00:00 2.7 5 Sur 8 Sudeste 0 -- -- 76
2018-11-03 23:00:00 2.7 3 Sur 7 Sur 0 -- -- 79
2018-11-03 22:00:00 3.1 4 Sur 8 Sur 0 -- -- 78
2018-11-03 21:00:00 2.8 4 Sur 5 Sudeste 0 -- -- 80
2018-11-03 20:00:00 4.4 3 Sur 7 Sur 0 -- -- 74
2018-11-03 19:00:00 7.7 0 Calma 3 Sudeste 0 -- -- 61
2018-11-03 18:00:00 12.8 0 Calma 7 Norte 0 -- -- 42
2018-11-03 17:00:00 14.6 3 Norte 10 Norte 0 -- -- 32
2018-11-03 16:00:00 15 7 Norte 13 Norte 0 -- -- 33
2018-11-03 15:00:00 14.9 5 Nordeste 14 Nordeste 0 -- -- 33
2018-11-03 14:00:00 13.9 8 Nordeste 15 Nordeste 0 -- -- 44
2018-11-03 13:00:00 12.9 9 Nordeste 20 Este 0 -- -- 55
2018-11-03 12:00:00 12.1 11 Nordeste 19 Nordeste 0 -- -- 60
2018-11-03 11:00:00 10.7 8 Nordeste 16 Nordeste 0 -- -- 61
2018-11-03 10:00:00 7.2 3 Nordeste 6 Norte 0 -- -- 78
2018-11-03 09:00:00 3.1 0 Calma 3 Sudeste 0 -- -- 96
2018-11-03 08:00:00 1.3 3 Sudeste 4 Sudeste 0 -- -- 94
2018-11-03 07:00:00 3.6 0 Calma 5 Este 0 -- -- 89
2018-11-03 06:00:00 3.9 2 Sudeste 4 Este 0 -- -- 89
2018-11-03 05:00:00 4 0 Calma 4 Nordeste 0 -- -- 93
2018-11-03 04:00:00 3.9 2 Norte 4 Norte 0 -- -- 96
2018-11-03 03:00:00 4 0 Calma 2 Noroeste 0 -- -- 95
2018-11-03 02:00:00 5 0 Calma 3 Sur 0 -- -- 95
2018-11-03 01:00:00 5.8 0 Calma 3 Sudeste 0 -- -- 96
2018-11-03 00:00:00 6.7 0 Calma 3 Sudeste 0 -- -- 92
2018-11-02 23:00:00 7.4 0 Calma 3 Sur 0 -- -- 92
2018-11-02 22:00:00 7.1 2 Sur 4 Sudoeste 0 -- -- 93
2018-11-02 21:00:00 8.3 2 Sur 6 Sudoeste 0 -- -- 87
2018-11-02 20:00:00 10.8 0 Calma 5 Este 0 -- -- 81
2018-11-02 19:00:00 12.7 3 Este 13 Nordeste 0 -- -- 75
2018-11-02 18:00:00 15 9 Nordeste 17 Norte 0 -- -- 68
2018-11-02 17:00:00 16.5 11 Norte 21 Norte 0 -- -- 57
2018-11-02 16:00:00 16.3 13 Norte 25 Norte 0 -- -- 60
2018-11-02 15:00:00 16.2 10 Noroeste 21 Noroeste 0 -- -- 64
2018-11-02 14:00:00 16.3 11 Norte 23 Noroeste 0 -- -- 64
2018-11-02 13:00:00 15.1 12 Noroeste 28 Noroeste 0 -- -- 68
2018-11-02 12:00:00 13.9 12 Noroeste 27 Oeste 0 -- -- 75
2018-11-02 11:00:00 12.4 13 Noroeste 28 Noroeste 0 -- -- 84
2018-11-02 10:00:00 11.6 11 Noroeste 23 Oeste 0 -- -- 87
2018-11-02 09:00:00 10.7 9 Oeste 19 Oeste 0 -- -- 91
2018-11-02 08:00:00 10.3 8 Sudoeste 23 Sudoeste 0 -- -- 93
2018-11-02 07:00:00 10.3 10 Sudoeste 19 Sudoeste 0 -- -- 92
2018-11-02 06:00:00 10.1 9 Sudoeste 20 Sudoeste 0 -- -- 92
2018-11-02 05:00:00 10 11 Sudoeste 27 Sudoeste 0 -- -- 90
2018-11-02 04:00:00 9.7 14 Sudoeste 31 Sudoeste 0 -- -- 89
2018-11-02 03:00:00 9.6 16 Sudoeste 25 Sudoeste 0 -- -- 89
2018-11-02 02:00:00 9.4 12 Sudoeste 24 Sudoeste 0 -- -- 81
2018-11-02 01:00:00 8.7 8 Sudoeste 17 Sudoeste 0 -- -- 82
2018-11-02 00:00:00 8.6 5 Sudoeste 17 Sudoeste 0 -- -- 85
2018-11-01 23:00:00 9 9 Sudoeste 17 Sudoeste 0 -- -- 79
2018-11-01 22:00:00 8.7 9 Sudoeste 14 Sudoeste 0 -- -- 74
2018-11-01 21:00:00 9 5 Sudoeste 10 Sudoeste 0 -- -- 69
2018-11-01 20:00:00 9.3 4 Sudoeste 11 Sudoeste 0 -- -- 68
2018-11-01 19:00:00 9.7 4 Oeste 14 Sudoeste 0 -- -- 67
2018-11-01 18:00:00 10.3 6 Oeste 17 Oeste 0 -- -- 62
2018-11-01 17:00:00 10.7 10 Oeste 20 Oeste 0 -- -- 62
2018-11-01 16:00:00 11 10 Oeste 23 Sudoeste 0 -- -- 61
2018-11-01 15:00:00 11.7 9 Oeste 23 Sudoeste 0 -- -- 59
2018-11-01 14:00:00 11.3 8 Oeste 19 Sudoeste 0 -- -- 60
2018-11-01 13:00:00 10.2 5 Oeste 12 Sudoeste 0 -- -- 67
2018-11-01 12:00:00 8.5 6 Oeste 10 Oeste 0 -- -- 74
2018-11-01 11:00:00 6.9 6 Oeste 12 Oeste 0 -- -- 85
2018-11-01 10:00:00 6.2 6 Sudoeste 12 Sudoeste 0 -- -- 86
2018-11-01 09:00:00 2.4 0 Calma 5 Sur 0 -- -- 100
2018-11-01 08:00:00 0.9 4 Sur 6 Sur 0 -- -- 99
2018-11-01 07:00:00 1.8 4 Sudoeste 8 Sudoeste 0 -- -- 97
2018-11-01 06:00:00 1.1 0 Calma 6 Sudoeste 0 -- -- 97
2018-11-01 05:00:00 1.7 3 Sur 4 Sur 0 -- -- 98
2018-11-01 04:00:00 1.8 3 Sur 7 Sur 0 -- -- 98
2018-11-01 03:00:00 2.5 3 Sur 8 Sur 0 -- -- 96
2018-11-01 02:00:00 3.5 4 Sur 8 Sudeste 0 -- -- 94
2018-11-01 01:00:00 3.9 4 Sudeste 13 Sudoeste 0 -- -- 93
2018-11-01 00:00:00 4.5 6 Sudoeste 9 Sudoeste 0 -- -- 96
2018-10-31 23:00:00 3.8 2 Sur 8 Sudoeste 0 -- -- 91
2018-10-31 22:00:00 5.2 4 Sudoeste 6 Sudoeste 0 -- -- 91
2018-10-31 21:00:00 6.2 3 Sudoeste 6 Sudoeste 0 -- -- 86
2018-10-31 20:00:00 6.6 3 Sudoeste 8 Sudoeste 0 -- -- 83
2018-10-31 19:00:00 6.6 4 Sudoeste 8 Sudoeste 0 -- -- 82
2018-10-31 18:00:00 7.6 7 Sudoeste 13 Sudoeste 0 -- -- 76
2018-10-31 17:00:00 8.1 5 Oeste 13 Sudoeste 0 -- -- 73
2018-10-31 16:00:00 7.8 7 Sudoeste 16 Sudoeste 0 -- -- 72
2018-10-31 15:00:00 7.5 9 Sudoeste 15 Sudoeste 0 -- -- 76
2018-10-31 14:00:00 7.4 4 Oeste 13 Sudoeste 0 -- -- 81
2018-10-31 13:00:00 7 7 Oeste 18 Sudoeste 0 -- -- 82
2018-10-31 12:00:00 6.4 6 Oeste 18 Oeste 0 -- -- 86
2018-10-31 11:00:00 5.8 11 Sudoeste 18 Sudoeste 0 -- -- 90
2018-10-31 10:00:00 5.1 5 Oeste 12 Sudoeste 0 -- -- 95
2018-10-31 09:00:00 4.6 5 Oeste 13 Oeste 0 -- -- 96
2018-10-31 08:00:00 4.4 8 Oeste 16 Noroeste 0.2 -- -- 95
2018-10-31 07:00:00 4.4 7 Oeste 18 Oeste 0 -- -- 96
2018-10-31 06:00:00 4.6 10 Oeste 20 Oeste 0 -- -- 95
2018-10-31 05:00:00 4.5 5 Noroeste 15 Noroeste 0 -- -- 96
2018-10-31 04:00:00 4.4 7 Noroeste 24 Noroeste 0.4 -- -- 98
2018-10-31 03:00:00 4.8 8 Noroeste 21 Noroeste 0 -- -- 97
2018-10-31 02:00:00 4.8 4 Sudoeste 12 Sudoeste 0.2 -- -- 97
2018-10-31 01:00:00 4.7 6 Sudoeste 13 Sudoeste 0 -- -- 96
2018-10-31 00:00:00 4.6 5 Sudoeste 11 Sudoeste 0 -- -- 95
2018-10-30 23:00:00 4.3 4 Sudoeste 11 Sudoeste 0 -- -- 95
2018-10-30 22:00:00 4.9 3 Sudoeste 10 Sudoeste 0 -- -- 94
2018-10-30 21:00:00 5.1 6 Sudoeste 12 Sudoeste 0 -- -- 94
2018-10-30 20:00:00 5.3 6 Sudoeste 15 Sudoeste 0 -- -- 92
2018-10-30 19:00:00 5.9 0 Calma 5 Nordeste 0 -- -- 93
2018-10-30 18:00:00 6.3 0 Calma 9 Noroeste 0.2 -- -- 89
2018-10-30 17:00:00 6.8 3 Noroeste 13 Sudoeste 0.2 -- -- 89
2018-10-30 16:00:00 7.1 3 Sur 19 Sudeste 0.2 -- -- 87
2018-10-30 15:00:00 7.7 7 Sur 14 Sudeste 0.2 -- -- 86
2018-10-30 14:00:00 8.2 4 Sudoeste 15 Sur 0.8 -- -- 87
2018-10-30 13:00:00 8 8 Sur 22 Sudoeste 1 -- -- 84
2018-10-30 12:00:00 9 11 Sudoeste 19 Sudoeste 0 -- -- 78
2018-10-30 11:00:00 8.1 6 Sur 23 Sur 0.2 -- -- 82
2018-10-30 10:00:00 7 6 Sur 21 Sur 0 -- -- 81
2018-10-30 09:00:00 5.8 9 Sudoeste 26 Sur 0.4 -- -- 86
2018-10-30 08:00:00 5.4 4 Sudoeste 22 Sudoeste 0 -- -- 83
2018-10-30 07:00:00 5.5 14 Sudoeste 25 Sudoeste 0 -- -- 82
2018-10-30 06:00:00 4.9 8 Sudoeste 19 Sudoeste 0.4 -- -- 88
2018-10-30 05:00:00 4.5 7 Sudoeste 21 Sudoeste 1.2 -- -- 90
2018-10-30 04:00:00 4.4 8 Sudoeste 18 Sudoeste 0.6 -- -- 89
2018-10-30 03:00:00 4.4 9 Sudoeste 28 Sudoeste 0 -- -- 83
2018-10-30 02:00:00 4.2 12 Sudoeste 34 Sudoeste 0 -- -- 80
2018-10-30 01:00:00 4.2 12 Sudoeste 25 Sudoeste 0 -- -- 71
2018-10-30 00:00:00 4.4 13 Sudoeste 27 Sudoeste 0 -- -- 70
2018-10-29 23:00:00 4.8 7 Sudoeste 24 Sudoeste 0 -- -- 69
2018-10-29 22:00:00 4.9 12 Sudoeste 23 Oeste 0 -- -- 67
2018-10-29 21:00:00 4.8 12 Sudoeste 21 Sudoeste 0 -- -- 68
2018-10-29 20:00:00 5.8 9 Oeste 17 Sudoeste 0 -- -- 63
2018-10-29 19:00:00 6.2 6 Oeste 18 Oeste 0 -- -- 62
2018-10-29 18:00:00 6.7 10 Oeste 29 Oeste 0 -- -- 57
2018-10-29 17:00:00 7.1 14 Oeste 31 Oeste 0 -- -- 54
2018-10-29 16:00:00 7.7 17 Noroeste 33 Noroeste 0 -- -- 46
2018-10-29 15:00:00 8.5 18 Oeste 33 Oeste 0 -- -- 45
2018-10-29 14:00:00 7.8 12 Noroeste 26 Oeste 0 -- -- 49
2018-10-29 13:00:00 7 15 Noroeste 31 Oeste 0 -- -- 58
2018-10-29 12:00:00 5.6 13 Oeste 23 Oeste 0 -- -- 63
2018-10-29 11:00:00 3.9 9 Oeste 20 Noroeste 0 -- -- 78
2018-10-29 10:00:00 1.2 10 Oeste 22 Oeste 0 -- -- 91
2018-10-29 09:00:00 -0.1 6 Sudoeste 15 Sudoeste 0 -- -- 94
2018-10-29 08:00:00 -1.1 4 Sudoeste 8 Sur 0 -- -- 97
2018-10-29 07:00:00 -1.7 4 Sur 8 Sudoeste 0 -- -- 95
2018-10-29 06:00:00 -1.4 5 Sudoeste 12 Sudoeste 0 -- -- 93
2018-10-29 05:00:00 -2.2 2 Sur 9 Sudoeste 0 -- -- 90
2018-10-29 04:00:00 -2.1 0 Calma 8 Sudoeste 0 -- -- 91
2018-10-29 03:00:00 -0.6 5 Sudoeste 13 Oeste 0 -- -- 88
2018-10-29 02:00:00 -0.2 6 Sudoeste 12 Sudoeste 0 -- -- 83
2018-10-29 01:00:00 -0.8 4 Sudoeste 8 Sudoeste 0 -- -- 87
2018-10-29 00:00:00 1.3 0 Calma 13 Norte 0 -- -- 78
2018-10-28 23:00:00 2.8 8 Norte 22 Norte 0 -- -- 72
2018-10-28 22:00:00 3.8 6 Norte 26 Norte 0 -- -- 68
2018-10-28 21:00:00 3.2 0 Calma 14 Norte 0 -- -- 69
2018-10-28 20:00:00 4.2 8 Noroeste 15 Noroeste 0 -- -- 63
2018-10-28 19:00:00 4.9 2 Noroeste 9 Norte 0 -- -- 64
2018-10-28 18:00:00 5.4 10 Norte 23 Norte 0 -- -- 58
2018-10-28 17:00:00 5.9 9 Norte 27 Norte 0 -- -- 54
2018-10-28 16:00:00 6 13 Norte 24 Norte 0 -- -- 57
2018-10-28 15:00:00 5.4 11 Nordeste 21 Norte 0 -- -- 63
2018-10-28 14:00:00 4.9 13 Nordeste 22 Nordeste 0 -- -- 66
2018-10-28 13:00:00 3.6 11 Norte 23 Norte 0 -- -- 81
2018-10-28 12:00:00 3.4 13 Norte 21 Norte 0 -- -- 78
2018-10-28 11:00:00 2 11 Norte 18 Norte 0 -- -- 83
2018-10-28 10:00:00 1.4 4 Norte 8 Norte 0 -- -- 81
2018-10-28 09:00:00 -0.3 0 Calma 2 Sur 0 -- -- 96
2018-10-28 08:00:00 -1.8 0 Calma 3 Sur 0 -- -- 98
2018-10-28 07:00:00 -1.7 2 Sudoeste 3 Sudoeste 0 -- -- 95
2018-10-28 06:00:00 -1.6 0 Calma 3 Sur 0 -- -- 94
2018-10-28 05:00:00 -1 0 Calma 2 Sur 0 -- -- 92
2018-10-28 04:00:00 -0.1 0 Calma 9 Norte 0 -- -- 88
2018-10-28 03:00:00 0.8 3 Norte 14 Norte 0 -- -- 87
2018-10-28 02:00:00 1.2 6 Norte 13 Norte 0 -- -- 87
2018-10-28 01:00:00 2.3 15 Norte 29 Norte 0 -- -- 85
2018-10-28 00:00:00 2.9 17 Norte 26 Norte 0 -- -- 82
2018-10-27 23:00:00 3.5 6 Noroeste 13 Noroeste 0 -- -- 86
2018-10-27 22:00:00 3.3 4 Norte 8 Norte 0 -- -- 89
2018-10-27 21:00:00 3 11 Norte 40 Noroeste 1.2 -- -- 91
2018-10-27 20:00:00 5.4 6 Noroeste 24 Noroeste 0 -- -- 80
2018-10-27 19:00:00 6.3 8 Oeste 18 Oeste 0 -- -- 77
2018-10-27 18:00:00 6.8 5 Norte 14 Norte 0 -- -- 72
2018-10-27 17:00:00 7.3 6 Nordeste 20 Norte 0 -- -- 69
2018-10-27 16:00:00 7 8 Nordeste 17 Este 0 -- -- 74
2018-10-27 15:00:00 6.5 9 Nordeste 22 Nordeste 0 -- -- 77
2018-10-27 14:00:00 5.4 11 Nordeste 29 Nordeste 0.2 -- -- 90
2018-10-27 13:00:00 4.6 15 Nordeste 28 Este 0.6 -- -- 91
2018-10-27 12:00:00 5.3 16 Nordeste 30 Nordeste 0.6 -- -- 93
2018-10-27 11:00:00 5 18 Nordeste 35 Norte 0.4 -- -- 94
2018-10-27 10:00:00 6.8 12 Nordeste 32 Nordeste 0 -- -- 92
2018-10-27 09:00:00 8 6 Nordeste 18 Nordeste 0 -- -- 94
2018-10-27 08:00:00 8.6 5 Nordeste 14 Norte 0 -- -- 92
2018-10-27 07:00:00 8.5 7 Norte 13 Norte 0 -- -- 93
2018-10-27 06:00:00 8.2 2 Nordeste 5 Norte 0 -- -- 94
2018-10-27 05:00:00 8.1 0 Calma 6 Nordeste 0 -- -- 92
2018-10-27 04:00:00 9.2 3 Nordeste 8 Norte 0 -- -- 88
2018-10-27 03:00:00 11.1 5 Noroeste 9 Noroeste 0 -- -- 90
2018-10-27 02:00:00 11.4 3 Oeste 14 Sudoeste 0 -- -- 90
2018-10-27 01:00:00 11.2 6 Sudoeste 12 Sudoeste 0 -- -- 89
2018-10-27 00:00:00 11.1 4 Sudoeste 9 Sudoeste 0 -- -- 90
2018-10-26 23:00:00 11.3 2 Sur 6 Sur 0 -- -- 87
2018-10-26 22:00:00 11.5 3 Sudoeste 11 Sudoeste 0 -- -- 89
2018-10-26 21:00:00 11.8 5 Sudoeste 9 Sudoeste 0 -- -- 91
2018-10-26 20:00:00 12.1 3 Oeste 18 Sudoeste 0.2 -- -- 89
2018-10-26 19:00:00 12.7 8 Sudoeste 21 Sudoeste 0.2 -- -- 86
2018-10-26 18:00:00 13.1 10 Sudoeste 24 Sudoeste 0 -- -- 81
2018-10-26 17:00:00 13.9 9 Sudoeste 15 Oeste 0 -- -- 78
2018-10-26 16:00:00 15.6 8 Sudoeste 14 Oeste 0 -- -- 67
2018-10-26 15:00:00 16.2 2 Oeste 9 Noroeste 0 -- -- 61
2018-10-26 14:00:00 16.1 2 Oeste 4 Sur 0 -- -- 66
2018-10-26 13:00:00 16.3 0 Calma 4 Sur 0 -- -- 60
2018-10-26 12:00:00 14.8 0 Calma 3 Sur 0 -- -- 71
2018-10-26 11:00:00 12.4 0 Calma 2 Norte 0 -- -- 84
2018-10-26 10:00:00 10.5 0 Calma 4 Sur 0 -- -- 86
2018-10-26 09:00:00 9.5 2 Sudoeste 3 Sudoeste 0 -- -- 87
2018-10-26 08:00:00 9.3 0 Calma 2 Sur 0 -- -- 86
2018-10-26 07:00:00 9.5 0 Calma 3 Sur 0 -- -- 85
2018-10-26 06:00:00 9.8 0 Calma 4 Sur 0 -- -- 83
2018-10-26 05:00:00 9.6 2 Sur 3 Sur 0 -- -- 83
2018-10-26 04:00:00 9.4 2 Sur 4 Sur 0 -- -- 83
2018-10-26 03:00:00 9 3 Sur 5 Sur 0 -- -- 85
2018-10-26 02:00:00 9.3 3 Sur 5 Sur 0 -- -- 84
2018-10-26 01:00:00 8.7 2 Sur 4 Sur 0 -- -- 87
2018-10-26 00:00:00 9.6 0 Calma 4 Noroeste 0 -- -- 82
2018-10-25 23:00:00 10.5 0 Calma 4 Sudeste 0 -- -- 76
2018-10-25 22:00:00 11 3 Sudeste 5 Sur 0 -- -- 75
2018-10-25 21:00:00 11.9 3 Sur 4 Sudoeste 0 -- -- 69
2018-10-25 20:00:00 13.1 2 Sur 6 Sudoeste 0 -- -- 56
2018-10-25 19:00:00 19.1 3 Sudoeste 6 Sudoeste 0 -- -- 37
2018-10-25 18:00:00 20.9 3 Sudoeste 10 Sudoeste 0 -- -- 32
2018-10-25 17:00:00 21.3 3 Sudoeste 13 Oeste 0 -- -- 31
2018-10-25 16:00:00 21.7 4 Oeste 12 Oeste 0 -- -- 32
2018-10-25 15:00:00 21 3 Noroeste 12 Oeste 0 -- -- 34
2018-10-25 14:00:00 19.9 3 Oeste 9 Noroeste 0 -- -- 40
2018-10-25 13:00:00 18.4 4 Oeste 8 Oeste 0 -- -- 46
2018-10-25 12:00:00 15.4 0 Calma 2 Norte 0 -- -- 60
2018-10-25 11:00:00 11 0 Calma 2 Norte 0 -- -- 78
2018-10-25 10:00:00 6.1 0 Calma 2 Sur 0 -- -- 98
2018-10-25 09:00:00 3.1 0 Calma 2 Noroeste 0 -- -- 97
2018-10-25 08:00:00 2.6 2 Sur 3 Sur 0 -- -- 93
2018-10-25 07:00:00 3 2 Sur 4 Sur 0 -- -- 93
2018-10-25 06:00:00 3.6 0 Calma 2 Sur 0 -- -- 91
2018-10-25 05:00:00 4.1 0 Calma 5 Sur 0 -- -- 91
2018-10-25 04:00:00 3.9 2 Sur 4 Sudeste 0 -- -- 92
2018-10-25 03:00:00 4.4 0 Calma 4 Sur 0 -- -- 89
2018-10-25 02:00:00 5.4 2 Sur 5 Sur 0 -- -- 84
2018-10-25 01:00:00 5.2 2 Sur 3 Sur 0 -- -- 88
2018-10-25 00:00:00 6.1 2 Sur 4 Sur 0 -- -- 85
2018-10-24 23:00:00 6 0 Calma 4 Sur 0 -- -- 85
2018-10-24 22:00:00 7.5 0 Calma 4 Sur 0 -- -- 79
2018-10-24 21:00:00 9.3 3 Sur 4 Sur 0 -- -- 73
2018-10-24 20:00:00 14.6 0 Calma 5 Nordeste 0 -- -- 58
2018-10-24 19:00:00 18.1 4 Nordeste 7 Nordeste 0 -- -- 45
2018-10-24 18:00:00 20.1 3 Norte 9 Norte 0 -- -- 35
2018-10-24 17:00:00 20.4 4 Norte 10 Norte 0 -- -- 33
2018-10-24 16:00:00 20.3 4 Norte 10 Norte 0 -- -- 37
2018-10-24 15:00:00 19.7 4 Norte 9 Noroeste 0 -- -- 41
2018-10-24 14:00:00 18.9 5 Norte 11 Norte 0 -- -- 45
2018-10-24 13:00:00 17.3 3 Noroeste 8 Sudoeste 0 -- -- 53
2018-10-24 12:00:00 14.4 3 Norte 5 Norte 0 -- -- 66
2018-10-24 11:00:00 11 0 Calma 4 Norte 0 -- -- 81
2018-10-24 10:00:00 6 0 Calma 3 Sur 0 -- -- 100
2018-10-24 09:00:00 2.8 0 Calma 3 Sudeste 0 -- -- 96
2018-10-24 08:00:00 3.2 0 Calma 3 Sur 0 -- -- 97
2018-10-24 07:00:00 3.3 0 Calma 5 Sur 0 -- -- 95
2018-10-24 06:00:00 3.9 0 Calma 4 Sur 0 -- -- 95
2018-10-24 05:00:00 4.5 0 Calma 3 Norte 0 -- -- 93
2018-10-24 04:00:00 4.9 0 Calma 4 Sudeste 0 -- -- 93
2018-10-24 03:00:00 5.3 0 Calma 3 Sur 0 -- -- 90
2018-10-24 02:00:00 6.3 0 Calma 5 Sur 0 -- -- 88
2018-10-24 01:00:00 6.2 0 Calma 4 Sur 0 -- -- 89
2018-10-24 00:00:00 6.6 0 Calma 4 Sur 0 -- -- 86
2018-10-23 23:00:00 7.5 2 Sur 4 Sur 0 -- -- 84
2018-10-23 22:00:00 8.6 0 Calma 4 Sur 0 -- -- 79
2018-10-23 21:00:00 10.4 2 Sur 3 Sur 0 -- -- 76
2018-10-23 20:00:00 15 0 Calma 9 Norte 0 -- -- 59
2018-10-23 19:00:00 17.6 7 Norte 16 Norte 0 -- -- 50
2018-10-23 18:00:00 19.9 4 Norte 10 Nordeste 0 -- -- 46
2018-10-23 17:00:00 19.5 3 Nordeste 10 Nordeste 0 -- -- 47
2018-10-23 16:00:00 18.7 5 Este 14 Nordeste 0 -- -- 49
2018-10-23 15:00:00 17.2 8 Nordeste 15 Nordeste 0 -- -- 51
2018-10-23 14:00:00 15.6 8 Norte 16 Norte 0 -- -- 54
2018-10-23 13:00:00 13.1 4 Este 13 Nordeste 0 -- -- 57
2018-10-23 12:00:00 10.8 5 Nordeste 13 Norte 0 -- -- 63
2018-10-23 11:00:00 8.4 5 Nordeste 10 Nordeste 0 -- -- 70
2018-10-23 10:00:00 4.8 0 Calma 2 Nordeste 0 -- -- 89
2018-10-23 09:00:00 1.9 0 Calma 3 Sudeste 0 -- -- 94
2018-10-23 08:00:00 2.5 0 Calma 3 Sur 0 -- -- 91
2018-10-23 07:00:00 3.1 0 Calma 4 Sur 0 -- -- 87
2018-10-23 06:00:00 4.7 2 Norte 6 Norte 0 -- -- 82
2018-10-23 05:00:00 5.6 3 Norte 9 Nordeste 0 -- -- 78
2018-10-23 04:00:00 6.5 4 Norte 10 Norte 0 -- -- 74
2018-10-23 03:00:00 6.8 5 Norte 9 Norte 0 -- -- 74
2018-10-23 02:00:00 7.9 4 Norte 12 Nordeste 0 -- -- 74
2018-10-23 01:00:00 8.6 0 Calma 8 Nordeste 0 -- -- 75
2018-10-23 00:00:00 8.9 3 Norte 9 Nordeste 0 -- -- 75
2018-10-22 23:00:00 9.6 4 Nordeste 7 Nordeste 0 -- -- 73
2018-10-22 22:00:00 11.3 2 Nordeste 10 Nordeste 0 -- -- 65
2018-10-22 21:00:00 12.8 3 Nordeste 7 Nordeste 0 -- -- 58
2018-10-22 20:00:00 14.8 3 Norte 10 Nordeste 0 -- -- 52
2018-10-22 19:00:00 17.5 7 Nordeste 19 Nordeste 0 -- -- 45
2018-10-22 18:00:00 18.8 10 Nordeste 20 Nordeste 0 -- -- 44
2018-10-22 17:00:00 18.6 9 Nordeste 21 Nordeste 0 -- -- 46
2018-10-22 16:00:00 17.8 11 Nordeste 20 Nordeste 0 -- -- 53
2018-10-22 15:00:00 16.9 10 Nordeste 24 Nordeste 0 -- -- 58
2018-10-22 14:00:00 16 11 Nordeste 22 Nordeste 0 -- -- 65
2018-10-22 13:00:00 15.3 10 Norte 19 Norte 0 -- -- 69
2018-10-22 12:00:00 14 7 Nordeste 14 Norte 0 -- -- 81
2018-10-22 11:00:00 12.1 5 Nordeste 8 Nordeste 0 -- -- 90
2018-10-22 10:00:00 9.5 0 Calma 4 Norte 0 -- -- 99
2018-10-22 09:00:00 8 4 Noroeste 14 Norte 0 -- -- 98
2018-10-22 08:00:00 7.6 0 Calma 2 Sur 0 -- -- 95
2018-10-22 07:00:00 8.2 0 Calma 4 Sur 0 -- -- 95
2018-10-22 06:00:00 9 0 Calma 2 Sudoeste 0 -- -- 92
2018-10-22 05:00:00 9.9 0 Calma 8 Norte 0 -- -- 95
2018-10-22 04:00:00 11 3 Sur 4 Sudoeste 0 -- -- 91
2018-10-22 03:00:00 11.6 4 Norte 10 Norte 0 -- -- 91
2018-10-22 02:00:00 12.4 2 Sur 4 Nordeste 0 -- -- 89
2018-10-22 01:00:00 13.2 0 Calma 3 Oeste 0 -- -- 85
2018-10-22 00:00:00 13.9 0 Calma 12 Sudeste 0 -- -- 83
2018-10-21 23:00:00 14.8 0 Calma 10 Sudeste 0 -- -- 80
2018-10-21 22:00:00 15 5 Sudeste 9 Este 0 -- -- 77
2018-10-21 21:00:00 15.4 0 Calma 5 Este 0 -- -- 78
2018-10-21 20:00:00 16.6 4 Sudeste 10 Este 0 -- -- 70
2018-10-21 19:00:00 17.8 4 Este 17 Este 0 -- -- 64
2018-10-21 18:00:00 19.3 8 Este 22 Sudeste 0 -- -- 57
2018-10-21 17:00:00 20.4 11 Sudeste 24 Sudeste 0 -- -- 55
2018-10-21 16:00:00 19.8 13 Sudeste 29 Sudeste 0 -- -- 56
2018-10-21 15:00:00 19.9 16 Sudeste 31 Este 0 -- -- 57
2018-10-21 14:00:00 18.7 13 Este 31 Este 0 -- -- 61
2018-10-21 13:00:00 17.8 16 Este 32 Este 0 -- -- 67
2018-10-21 12:00:00 16.7 10 Este 22 Este 0 -- -- 72
2018-10-21 11:00:00 16.5 7 Nordeste 23 Sudeste 0 -- -- 74
2018-10-21 10:00:00 15.1 11 Este 27 Este 0 -- -- 78
2018-10-21 09:00:00 13.8 9 Este 24 Este 0 -- -- 84
2018-10-21 08:00:00 13.9 13 Este 24 Este 0.2 -- -- 84
2018-10-21 07:00:00 14.1 5 Nordeste 17 Sudeste 0 -- -- 82
2018-10-21 06:00:00 14.3 9 Este 25 Este 0 -- -- 81
2018-10-21 05:00:00 14.5 9 Este 30 Este 0 -- -- 80
2018-10-21 04:00:00 14.4 13 Este 27 Este 0 -- -- 80
2018-10-21 03:00:00 14.1 10 Este 30 Este 0.2 -- -- 83
2018-10-21 02:00:00 14.7 7 Este 28 Este 0 -- -- 77
2018-10-21 01:00:00 14.8 18 Sudeste 31 Este 0 -- -- 74
2018-10-21 00:00:00 14.4 17 Este 32 Este 0 -- -- 82
2018-10-20 23:00:00 13.4 5 Nordeste 12 Nordeste 0.2 -- -- 90
2018-10-20 22:00:00 14.1 4 Nordeste 22 Este 0.2 -- -- 85
2018-10-20 21:00:00 14.8 12 Este 30 Nordeste 0 -- -- 80
2018-10-20 20:00:00 15.6 10 Este 24 Este 0 -- -- 72
2018-10-20 19:00:00 17.3 12 Este 32 Este 0 -- -- 59
2018-10-20 18:00:00 18.6 19 Este 34 Este 0 -- -- 57
2018-10-20 17:00:00 19.6 14 Este 31 Este 0 -- -- 54
2018-10-20 16:00:00 19.6 18 Este 34 Este 0 -- -- 56
2018-10-20 15:00:00 18.5 13 Este 28 Este 0 -- -- 59
2018-10-20 14:00:00 17.8 18 Este 32 Este 0 -- -- 62
2018-10-20 13:00:00 16.6 15 Este 35 Este 0 -- -- 69
2018-10-20 12:00:00 16.7 15 Este 29 Este 0 -- -- 70
2018-10-20 11:00:00 15.5 6 Sudeste 14 Este 0 -- -- 78
2018-10-20 10:00:00 12.2 8 Nordeste 13 Nordeste 0 -- -- 96
2018-10-20 09:00:00 10.9 7 Norte 10 Nordeste 0 -- -- 97
2018-10-20 08:00:00 11.2 5 Norte 13 Nordeste 0 -- -- 97
2018-10-20 07:00:00 11.6 6 Nordeste 15 Este 0 -- -- 95
2018-10-20 06:00:00 12 10 Nordeste 17 Nordeste 0 -- -- 95
2018-10-20 05:00:00 11.8 5 Este 17 Nordeste 0 -- -- 95
2018-10-20 04:00:00 11.9 9 Nordeste 23 Nordeste 0.2 -- -- 96
2018-10-20 03:00:00 12.1 8 Nordeste 19 Nordeste 0 -- -- 95
2018-10-20 02:00:00 12.1 10 Nordeste 17 Nordeste 0 -- -- 94
2018-10-20 01:00:00 12.6 4 Nordeste 18 Este 0.2 -- -- 90
2018-10-20 00:00:00 12.9 6 Este 16 Este 0 -- -- 91
2018-10-19 23:00:00 13.4 9 Este 19 Este 0 -- -- 91
2018-10-19 22:00:00 13.6 8 Nordeste 22 Nordeste 0 -- -- 89
2018-10-19 21:00:00 13.8 15 Este 27 Este 0 -- -- 87
2018-10-19 20:00:00 13.6 4 Nordeste 8 Este 0 -- -- 93
2018-10-19 19:00:00 13.6 4 Este 22 Este 0.4 -- -- 93
2018-10-19 18:00:00 13.7 12 Este 31 Este 0.4 -- -- 92
2018-10-19 17:00:00 14 11 Este 23 Este 0.8 -- -- 93
2018-10-19 16:00:00 13.7 8 Este 26 Nordeste 0.4 -- -- 95
2018-10-19 15:00:00 13.4 15 Nordeste 27 Nordeste 0.8 -- -- 96
2018-10-19 14:00:00 12.9 6 Nordeste 28 Nordeste 2 -- -- 97
2018-10-19 13:00:00 13 10 Nordeste 27 Nordeste 0.2 -- -- 95
2018-10-19 12:00:00 12.8 12 Nordeste 24 Nordeste 0 -- -- 94
2018-10-19 11:00:00 12.2 9 Nordeste 16 Nordeste 0.2 -- -- 95
2018-10-19 10:00:00 12 8 Nordeste 15 Nordeste 0 -- -- 95
2018-10-19 09:00:00 12 8 Nordeste 18 Nordeste 0 -- -- 93
2018-10-19 08:00:00 12.1 10 Nordeste 21 Nordeste 0 -- -- 94
2018-10-19 07:00:00 12 13 Nordeste 25 Nordeste 0.4 -- -- 95
2018-10-19 06:00:00 11.9 13 Nordeste 25 Nordeste 0.2 -- -- 94
2018-10-19 05:00:00 11.8 10 Nordeste 21 Norte 0 -- -- 93
2018-10-19 04:00:00 11.9 9 Nordeste 17 Nordeste 0 -- -- 91
2018-10-19 03:00:00 12 6 Nordeste 13 Norte 0 -- -- 90
2018-10-19 02:00:00 12 7 Nordeste 16 Nordeste 0 -- -- 89
2018-10-19 01:00:00 12 10 Nordeste 22 Nordeste 0 -- -- 87
2018-10-19 00:00:00 11.8 6 Nordeste 15 Nordeste 0 -- -- 88
2018-10-18 23:00:00 12 6 Nordeste 19 Nordeste 0 -- -- 87
2018-10-18 22:00:00 13 10 Nordeste 23 Nordeste 0 -- -- 83
2018-10-18 21:00:00 14.1 12 Nordeste 27 Nordeste 0.2 -- -- 80
2018-10-18 20:00:00 14.4 3 Norte 8 Sudeste 0 -- -- 77
2018-10-18 19:00:00 15 3 Este 45 Nordeste 0 -- -- 73
2018-10-18 18:00:00 18.3 19 Nordeste 41 Nordeste 0 -- -- 52
2018-10-18 17:00:00 18.2 17 Nordeste 34 Nordeste 0 -- -- 53
2018-10-18 16:00:00 17.8 14 Nordeste 27 Nordeste 0 -- -- 59
2018-10-18 15:00:00 15.9 14 Nordeste 30 Nordeste 0 -- -- 66
2018-10-18 14:00:00 16.5 14 Nordeste 26 Nordeste 0 -- -- 62
2018-10-18 13:00:00 14.6 11 Nordeste 21 Nordeste 0 -- -- 78
2018-10-18 12:00:00 14.1 7 Norte 13 Norte 0 -- -- 82
2018-10-18 11:00:00 12.5 3 Norte 6 Norte 0 -- -- 91
2018-10-18 10:00:00 11.2 0 Calma 2 Noroeste 0 -- -- 94
2018-10-18 09:00:00 10.7 0 Calma 4 Noroeste 0 -- -- 91
2018-10-18 08:00:00 10.9 0 Calma 12 Oeste 0.2 -- -- 90
2018-10-18 07:00:00 10.4 0 Calma 4 Sudoeste 0 -- -- 91
2018-10-18 06:00:00 10.3 0 Calma 4 Nordeste 0 -- -- 90
2018-10-18 05:00:00 10.7 3 Nordeste 12 Noroeste 0 -- -- 91
2018-10-18 04:00:00 11 4 Este 9 Este 0 -- -- 86
2018-10-18 03:00:00 11.8 3 Oeste 6 Sudoeste 0 -- -- 87
2018-10-18 02:00:00 11.9 3 Este 6 Este 0 -- -- 85
2018-10-18 01:00:00 12.5 0 Calma 6 Este 0 -- -- 84
2018-10-18 00:00:00 12.4 4 Norte 12 Norte 0 -- -- 84